Time;durP1;ratioP1;P1;durP2;ratioP2;P2;SDS_P1;SDS_P2;PMS_P1;PMS_P2;Temp;Humidity;BMP_temperature;BMP_pressure;BME280_temperature;BME280_humidity;BME280_pressure;Samples;Min_cycle;Max_cycle;Signal;HPM_P1;HPM_P2
2022/04/26 03:37:39;;;;;;;;;;;9.50;1.00;;;;;;5054718;28;19990;-82
2022/04/26 03:43:07;;;;;;;;;;;9.50;1.00;;;;;;5074418;28;20381;-82
2022/04/26 03:48:39;;;;;;;;;;;9.50;1.00;;;;;;5074380;28;20860;-82
2022/04/26 03:54:07;;;;;;;;;;;9.50;1.00;;;;;;5074266;28;19985;-82
2022/04/26 03:59:35;;;;;;;;;;;9.60;1.00;;;;;;5073579;28;19919;-82
2022/04/26 04:05:03;;;;;;;;;;;9.60;1.00;;;;;;5074120;28;19916;-82
2022/04/26 04:10:32;;;;;;;;;;;9.50;1.00;;;;;;5073871;28;20306;-82
2022/04/26 04:13:33;;;;;;;;;;;9.60;1.00;;;;;;5073790;28;20022;-82
2022/04/26 04:19:21;;;;;;;;;;;9.60;1.00;;;;;;5073945;28;19923;-82
2022/04/26 04:24:49;;;;;;;;;;;9.60;1.00;;;;;;5073932;28;19959;-82
2022/04/26 04:30:17;;;;;;;;;;;9.50;1.00;;;;;;5073676;28;20282;-82
2022/04/26 04:35:45;;;;;;;;;;;9.50;1.00;;;;;;5073681;28;19915;-82
2022/04/26 04:38:33;;;;;;;;;;;9.50;1.00;;;;;;5073789;28;19909;-82
2022/04/26 04:44:03;;;;;;;;;;;9.60;1.00;;;;;;5073684;28;20268;-82
2022/04/26 04:46:45;;;;;;;;;;;9.60;1.00;;;;;;5074102;28;20353;-77
2022/04/26 04:49:23;;;;;;;;;;;9.60;1.00;;;;;;5074073;28;20036;-77
2022/04/26 04:52:21;;;;;;;;;;;9.70;1.00;;;;;;5073701;28;19909;-81
2022/04/26 04:54:51;;;;;;;;;;;9.70;1.00;;;;;;5057862;28;19912;-81
2022/04/26 04:57:21;;;;;;;;;;;9.70;1.00;;;;;;5065634;28;20007;-80
2022/04/26 04:59:47;;;;;;;;;;;9.80;1.00;;;;;;5071076;28;19920;-70
2022/04/26 05:02:13;;;;;;;;;;;9.80;1.00;;;;;;5073989;28;19934;-82
2022/04/26 05:07:42;;;;;;;;;;;9.90;1.00;;;;;;5057047;28;19915;-82
2022/04/26 05:10:11;;;;;;;;;;;9.90;1.00;;;;;;5073456;28;19958;-82
2022/04/26 05:15:39;;;;;;;;;;;9.90;1.00;;;;;;5059146;28;19936;-83
2022/04/26 05:18:05;;;;;;;;;;;9.90;1.00;;;;;;5077391;28;20340;-73
2022/04/26 05:20:33;;;;;;;;;;;9.90;1.00;;;;;;5077131;28;19912;-73
2022/04/26 05:25:53;;;;;;;;;;;9.90;1.00;;;;;;5076940;28;19920;-74
2022/04/26 05:28:19;;;;;;;;;;;9.90;1.00;;;;;;5077277;28;20261;-74
2022/04/26 05:30:45;;;;;;;;;;;9.90;1.00;;;;;;5063898;28;19909;-74
2022/04/26 05:48:27;;;;;;;;;;;9.70;1.00;;;;;;5083010;28;19919;-75
2022/04/26 05:50:57;;;;;;;;;;;9.80;1.00;;;;;;5080915;28;19913;-74
2022/04/26 05:56:26;;;;;;;;;;;9.90;1.00;;;;;;5076343;28;19919;-81
2022/04/26 05:59:15;;;;;;;;;;;10.00;1.00;;;;;;5076481;28;19908;-82
2022/04/26 06:01:45;;;;;;;;;;;10.00;1.00;;;;;;5056305;28;19909;-81
2022/04/26 06:04:33;;;;;;;;;;;10.10;1.00;;;;;;5070706;28;19912;-77
2022/04/26 06:07:03;;;;;;;;;;;10.20;1.00;;;;;;5075224;28;20299;-77
2022/04/26 06:09:40;;;;;;;;;;;10.20;1.00;;;;;;5076455;28;19923;-77
2022/04/26 06:12:06;;;;;;;;;;;;;;;;;;5075979;28;20314;-77
2022/04/26 06:14:33;;;;;;;;;;;10.30;1.00;;;;;;5081783;28;20375;-77
2022/04/26 06:17:33;;;;;;;;;;;10.40;1.00;;;;;;5082294;28;19944;-77
2022/04/26 06:20:03;;;;;;;;;;;10.40;1.00;;;;;;5076583;28;20321;-81
2022/04/26 06:22:29;;;;;;;;;;;10.40;1.00;;;;;;5075361;28;20351;-82
2022/04/26 06:25:27;;;;;;;;;;;10.40;1.00;;;;;;5077215;28;19913;-82
2022/04/26 06:28:16;;;;;;;;;;;10.40;1.00;;;;;;5066571;28;20430;-82
2022/04/26 06:30:45;;;;;;;;;;;10.50;1.00;;;;;;5094913;28;19909;-82
2022/04/26 06:33:21;;;;;;;;;;;10.40;1.00;;;;;;5076139;28;20003;-80
2022/04/26 06:35:47;;;;;;;;;;;10.50;1.00;;;;;;5083097;28;19919;-80
2022/04/26 06:38:24;;;;;;;;;;;10.50;1.00;;;;;;5074431;28;19909;-80
2022/04/26 06:40:57;;;;;;;;;;;10.50;1.00;;;;;;5075827;28;19909;-80
2022/04/26 06:43:57;;;;;;;;;;;10.50;1.00;;;;;;5075423;28;19920;-80
2022/04/26 06:49:33;;;;;;;;;;;10.60;1.00;;;;;;5075437;28;20007;-75
2022/04/26 06:51:59;;;;;;;;;;;10.60;1.00;;;;;;5075732;28;19991;-75
2022/04/26 06:54:24;;;;;;;;;;;10.70;1.00;;;;;;5075360;28;19955;-75
2022/04/26 06:56:50;;;;;;;;;;;10.60;1.00;;;;;;5075537;28;19958;-74
2022/04/26 06:59:16;;;;;;;;;;;10.50;1.00;;;;;;5075535;28;19938;-75
2022/04/26 07:01:41;;;;;;;;;;;10.50;1.00;;;;;;5075880;28;19917;-75
2022/04/26 07:04:32;;;;;;;;;;;10.30;1.00;;;;;;5074354;28;19916;-75
2022/04/26 07:10:08;;;;;;;;;;;10.20;1.00;;;;;;5055170;28;19920;-81
2022/04/26 07:18:39;;;;;;;;;;;10.10;1.00;;;;;;5075397;28;19974;-82
2022/04/26 07:24:08;;;;;;;;;;;10.30;1.00;;;;;;5074821;28;20417;-82
2022/04/26 07:35:27;;;;;;;;;;;10.50;1.00;;;;;;5076308;28;19957;-75
2022/04/26 07:37:53;;;;;;;;;;;10.50;1.00;;;;;;5074764;28;19908;-75
2022/04/26 07:40:19;;;;;;;;;;;10.60;1.00;;;;;;5084136;28;19908;-75
2022/04/26 07:42:45;;;;;;;;;;;10.70;1.00;;;;;;5074380;28;19920;-74
2022/04/26 07:45:12;;;;;;;;;;;10.80;1.00;;;;;;5084412;28;20417;-75
2022/04/26 07:47:52;;;;;;;;;;;11.00;1.00;;;;;;5074885;28;19908;-75
2022/04/26 07:53:20;;;;;;;;;;;11.10;1.00;;;;;;5074219;28;19931;-83
2022/04/26 07:56:15;;;;;;;;;;;11.20;1.00;;;;;;5073924;28;20348;-82
2022/04/26 08:01:57;;;;;;;;;;;11.30;1.00;;;;;;5073870;28;20371;-82
2022/04/26 08:04:41;;;;;;;;;;;11.40;1.00;;;;;;5072376;28;19923;-75
2022/04/26 08:07:15;;;;;;;;;;;;;;;;;;5074268;28;19919;-76
2022/04/26 08:09:45;;;;;;;;;;;11.50;1.00;;;;;;5074370;28;19915;-75
2022/04/26 08:12:12;;;;;;;;;;;11.50;1.00;;;;;;5073848;28;19958;-75
2022/04/26 08:14:39;;;;;;;;;;;11.60;1.00;;;;;;5074137;28;19952;-76
2022/04/26 08:17:06;;;;;;;;;;;11.70;1.00;;;;;;5074026;28;19994;-75
2022/04/26 08:19:51;;;;;;;;;;;11.70;1.00;;;;;;5074345;28;19916;-82
2022/04/26 08:31:09;;;;;;;;;;;12.20;1.00;;;;;;5073120;28;19981;-83
2022/04/26 08:33:47;;;;;;;;;;;12.30;1.00;;;;;;5072778;28;19912;-75
2022/04/26 08:39:15;;;;;;;;;;;12.50;1.00;;;;;;5063688;28;20050;-82
2022/04/26 08:44:44;;;;;;;;;;;12.70;1.00;;;;;;5074530;28;19919;-82
2022/04/26 08:53:16;;;;;;;;;;;13.00;1.00;;;;;;5077796;28;19931;-80
2022/04/26 09:01:48;;;;;;;;;;;13.10;1.00;;;;;;5074312;28;19954;-82
2022/04/26 09:13:23;;;;;;;;;;;12.90;1.00;;;;;;5057140;28;20019;-82
2022/04/26 09:18:39;;;;;;;;;;;12.70;1.00;;;;;;5077263;28;19915;-82
2022/04/26 09:21:15;;;;;;;;;;;12.60;1.00;;;;;;5057838;28;19935;-75
2022/04/26 09:23:42;;;;;;;;;;;12.30;1.00;;;;;;5072653;28;19999;-76
2022/04/26 09:26:08;;;;;;;;;;;12.20;1.00;;;;;;5077534;28;19954;-76
2022/04/26 09:28:36;;;;;;;;;;;12.30;1.00;;;;;;5077025;28;20251;-73
2022/04/26 09:31:15;;;;;;;;;;;12.30;1.00;;;;;;5076756;28;19962;-73
2022/04/26 09:33:47;;;;;;;;;;;12.30;1.00;;;;;;5074256;28;19957;-73
2022/04/26 09:36:24;;;;;;;;;;;12.30;1.00;;;;;;5072079;28;19909;-73
2022/04/26 09:38:53;;;;;;;;;;;12.30;1.00;;;;;;5084880;28;20003;-73
2022/04/26 09:41:18;;;;;;;;;;;12.50;1.00;;;;;;5076709;28;19912;-74
2022/04/26 09:43:59;;;;;;;;;;;12.50;1.00;;;;;;5076700;28;19913;-81
2022/04/26 09:46:24;;;;;;;;;;;12.50;1.00;;;;;;5072773;28;19954;-81
2022/04/26 09:51:59;;;;;;;;;;;12.80;1.00;;;;;;5064315;28;20339;-76
2022/04/26 09:54:25;;;;;;;;;;;12.90;1.00;;;;;;5076635;28;19909;-76
2022/04/26 09:56:58;;;;;;;;;;;12.90;1.00;;;;;;5076273;28;19908;-77
2022/04/26 09:59:42;;;;;;;;;;;13.10;1.00;;;;;;5070928;28;19962;-77
2022/04/26 10:02:16;;;;;;;;;;;13.10;1.00;;;;;;5076265;28;19913;-80
2022/04/26 10:07:27;;;;;;;;;;;13.30;1.00;;;;;;5075838;28;20282;-81
2022/04/26 10:10:11;;;;;;;;;;;13.20;1.00;;;;;;5076385;28;20003;-77
2022/04/26 10:12:40;;;;;;;;;;;13.00;1.00;;;;;;5076086;28;19921;-79
2022/04/26 10:15:10;;;;;;;;;;;12.80;1.00;;;;;;5076359;28;19979;-78
2022/04/26 10:17:35;;;;;;;;;;;12.90;1.00;;;;;;5077934;28;19908;-78
2022/04/26 10:20:36;;;;;;;;;;;13.00;1.00;;;;;;5084056;28;19908;-77
2022/04/26 10:23:33;;;;;;;;;;;13.10;1.00;;;;;;5014217;28;20242;-77
2022/04/26 10:29:09;;;;;;;;;;;13.00;1.00;;;;;;5033492;28;20403;-82
2022/04/26 10:31:39;;;;;;;;;;;13.00;1.00;;;;;;5023737;28;19978;-81
2022/04/26 10:34:41;;;;;;;;;;;13.00;1.00;;;;;;5033528;28;19915;-81
2022/04/26 10:40:27;;;;;;;;;;;;;;;;;;5027112;28;20006;-81
2022/04/26 10:42:53;;;;;;;;;;;;;;;;;;5013565;28;19914;-82
2022/04/26 10:45:21;;;;;;;;;;;;;;;;;;5032624;28;19917;-81
2022/04/26 10:47:47;;;;;;;;;;;;;;;;;;5032810;28;19913;-81
2022/04/26 10:50:29;;;;;;;;;;;12.90;1.00;;;;;;5031041;28;19920;-81
2022/04/26 10:52:55;;;;;;;;;;;12.90;1.00;;;;;;5032677;28;19913;-81
2022/04/26 10:55:24;;;;;;;;;;;12.90;1.00;;;;;;5015998;28;19981;-81
2022/04/26 10:57:50;;;;;;;;;;;;;;;;;;5036091;28;19908;-81
2022/04/26 11:00:21;;;;;;;;;;;12.60;1.00;;;;;;5067902;28;19909;-81
2022/04/26 11:02:47;;;;;;;;;;;12.50;1.00;;;;;;5074497;28;20364;-81
2022/04/26 11:05:17;;;;;;;;;;;12.40;1.00;;;;;;5074390;28;20379;-82
2022/04/26 11:07:44;;;;;;;;;;;12.30;1.00;;;;;;5074813;28;19913;-81
2022/04/26 11:10:10;;;;;;;;;;;;;;;;;;5074182;28;19908;-81
2022/04/26 11:12:37;;;;;;;;;;;12.20;1.00;;;;;;5074743;28;19913;-81
2022/04/26 11:15:10;;;;;;;;;;;12.20;1.00;;;;;;5074213;28;19921;-81
2022/04/26 11:17:36;;;;;;;;;;;;;;;;;;5074441;28;19944;-81
2022/04/26 11:20:13;;;;;;;;;;;12.30;1.00;;;;;;5106653;28;19909;-77
2022/04/26 11:22:57;;;;;;;;;;;12.30;1.00;;;;;;5074486;28;20010;-77
2022/04/26 11:28:10;;;;;;;;;;;;;;;;;;5074446;28;19962;-77
2022/04/26 11:30:40;;;;;;;;;;;12.40;1.00;;;;;;5073861;28;19913;-77
2022/04/26 11:33:07;;;;;;;;;;;12.40;1.00;;;;;;5073797;28;20287;-76
2022/04/26 11:35:34;;;;;;;;;;;12.40;1.00;;;;;;5073830;28;19909;-77
2022/04/26 11:38:04;;;;;;;;;;;12.40;1.00;;;;;;5072905;28;19958;-81
2022/04/26 11:40:32;;;;;;;;;;;12.40;1.00;;;;;;5060927;28;19952;-81
2022/04/26 11:42:58;;;;;;;;;;;12.40;1.00;;;;;;5073671;28;19913;-81
2022/04/26 11:45:28;;;;;;;;;;;12.50;1.00;;;;;;5073663;28;19909;-81
2022/04/26 11:47:54;;;;;;;;;;;;;;;;;;5072274;28;20405;-81
2022/04/26 11:50:21;;;;;;;;;;;12.50;1.00;;;;;;5073183;28;19988;-81
2022/04/26 11:52:48;;;;;;;;;;;12.60;1.00;;;;;;5074154;28;19913;-81
2022/04/26 11:55:23;;;;;;;;;;;12.70;1.00;;;;;;5073787;28;19912;-81
2022/04/26 11:57:48;;;;;;;;;;;12.70;1.00;;;;;;5073593;28;20410;-81
2022/04/26 12:00:15;;;;;;;;;;;16.20;1.00;;;;;;5073581;28;19912;-81
2022/04/26 12:02:47;;;;;;;;;;;12.80;1.00;;;;;;5073288;28;19919;-81
2022/04/26 12:05:13;;;;;;;;;;;12.80;1.00;;;;;;5073478;28;19944;-81
2022/04/26 12:07:39;;;;;;;;;;;16.20;1.00;;;;;;5073419;28;19931;-81
2022/04/26 12:10:23;;;;;;;;;;;13.10;1.00;;;;;;5073215;28;19916;-81
2022/04/26 12:12:58;;;;;;;;;;;13.30;1.00;;;;;;5067313;28;20383;-81
2022/04/26 12:15:25;;;;;;;;;;;13.30;1.00;;;;;;5073431;28;19970;-81
2022/04/26 12:18:07;;;;;;;;;;;13.30;1.00;;;;;;5073243;28;20252;-82
2022/04/26 12:20:36;;;;;;;;;;;13.40;1.00;;;;;;5072792;28;19909;-80
2022/04/26 12:23:02;;;;;;;;;;;15.40;1.00;;;;;;5073315;28;20322;-77
2022/04/26 12:25:28;;;;;;;;;;;15.20;1.00;;;;;;5072839;28;20476;-77
2022/04/26 12:28:03;;;;;;;;;;;14.20;1.00;;;;;;5072613;28;19908;-77
2022/04/26 12:30:29;;;;;;;;;;;14.50;1.00;;;;;;5072809;28;19909;-77
2022/04/26 12:32:55;;;;;;;;;;;14.50;1.00;;;;;;5072829;28;19947;-77
2022/04/26 12:35:21;;;;;;;;;;;17.00;1.00;;;;;;5105502;28;19924;-77
2022/04/26 12:37:47;;;;;;;;;;;14.80;1.00;;;;;;5069834;28;19913;-80
2022/04/26 12:40:15;;;;;;;;;;;14.90;1.00;;;;;;5071672;28;20003;-80
2022/04/26 12:42:42;;;;;;;;;;;15.10;1.00;;;;;;5071795;28;20328;-80
2022/04/26 12:45:12;;;;;;;;;;;15.20;1.00;;;;;;5072479;28;19950;-80
2022/04/26 12:50:35;;;;;;;;;;;15.20;99.90;;;;;;5072359;28;20019;-80
2022/04/26 12:53:02;;;;;;;;;;;14.90;99.90;;;;;;5105485;28;19955;-80
2022/04/26 12:55:30;;;;;;;;;;;16.80;1.00;;;;;;5072533;28;19909;-80
2022/04/26 12:57:57;;;;;;;;;;;15.00;1.00;;;;;;5072588;28;19908;-80
2022/04/26 13:00:23;;;;;;;;;;;15.00;99.90;;;;;;5105070;28;19946;-80
2022/04/26 13:02:49;;;;;;;;;;;16.70;99.90;;;;;;5072686;28;19913;-80
2022/04/26 13:05:15;;;;;;;;;;;15.00;99.90;;;;;;5072713;28;20410;-80
2022/04/26 13:07:41;;;;;;;;;;;15.50;1.00;;;;;;5073085;28;19908;-77
2022/04/26 13:10:07;;;;;;;;;;;16.80;1.00;;;;;;5072531;28;19912;-77
2022/04/26 13:12:32;;;;;;;;;;;15.60;99.90;;;;;;5073034;28;19950;-77
2022/04/26 13:15:00;;;;;;;;;;;16.30;99.90;;;;;;5072688;28;19921;-77
2022/04/26 13:17:26;;;;;;;;;;;16.30;99.90;;;;;;5105257;28;19916;-77
2022/04/26 13:19:57;;;;;;;;;;;16.30;99.90;;;;;;5072750;28;19908;-77
2022/04/26 13:22:23;;;;;;;;;;;16.30;99.90;;;;;;5072898;28;19912;-78
2022/04/26 13:24:50;;;;;;;;;;;16.40;99.90;;;;;;5072710;28;19908;-77
2022/04/26 13:27:16;;;;;;;;;;;16.90;99.90;;;;;;5072498;28;19908;-77
2022/04/26 13:29:41;;;;;;;;;;;17.40;99.90;;;;;;5072631;28;19935;-77
2022/04/26 13:32:07;;;;;;;;;;;16.70;99.90;;;;;;5073891;28;19913;-77
2022/04/26 13:34:33;;;;;;;;;;;16.70;99.90;;;;;;5076263;28;19909;-77
2022/04/26 13:36:59;;;;;;;;;;;16.80;99.90;;;;;;5076389;28;19916;-77
2022/04/26 13:39:24;;;;;;;;;;;17.20;99.90;;;;;;5075454;28;19959;-77
2022/04/26 13:41:50;;;;;;;;;;;17.60;99.90;;;;;;5074376;28;19909;-75
2022/04/26 13:44:19;;;;;;;;;;;17.80;99.90;;;;;;5075946;28;19924;-75
2022/04/26 13:46:45;;;;;;;;;;;18.10;99.90;;;;;;5074908;28;19960;-74
2022/04/26 13:49:11;;;;;;;;;;;18.10;99.90;;;;;;5079470;28;19920;-76
2022/04/26 13:51:40;;;;;;;;;;;17.80;99.90;;;;;;5094025;28;19960;-75
2022/04/26 13:54:10;;;;;;;;;;;17.30;99.90;;;;;;5076915;28;19915;-77
2022/04/26 13:56:36;;;;;;;;;;;16.80;99.90;;;;;;5075913;28;19919;-76
2022/04/26 13:59:33;;;;;;;;;;;16.20;99.90;;;;;;5075318;28;19947;-77
2022/04/26 14:01:59;;;;;;;;;;;15.80;99.90;;;;;;5073015;28;19913;-79
2022/04/26 14:04:40;;;;;;;;;;;15.40;99.90;;;;;;5069587;28;19969;-81
2022/04/26 14:07:10;;;;;;;;;;;14.90;99.90;;;;;;5108985;28;19909;-77
2022/04/26 14:09:36;;;;;;;;;;;14.50;99.90;;;;;;5069689;28;19909;-78
2022/04/26 14:12:02;;;;;;;;;;;14.10;99.90;;;;;;5069541;28;19936;-78
2022/04/26 14:22:44;;;;;;;;;;;13.00;1.00;;;;;;5076648;28;20003;-75
2022/04/26 14:25:11;;;;;;;;;;;12.70;1.00;;;;;;5076283;28;19909;-76
2022/04/26 14:27:37;;;;;;;;;;;12.60;1.00;;;;;;5108843;28;19909;-75
2022/04/26 14:30:04;;;;;;;;;;;12.50;1.00;;;;;;5076095;28;19912;-75
2022/04/26 14:32:40;;;;;;;;;;;12.40;1.00;;;;;;5076181;28;19908;-75
2022/04/26 14:35:10;;;;;;;;;;;12.30;1.00;;;;;;5076208;28;19908;-76
2022/04/26 14:37:41;;;;;;;;;;;12.30;1.00;;;;;;5076095;28;19952;-78
2022/04/26 14:40:10;;;;;;;;;;;12.20;1.00;;;;;;5075809;28;20308;-78
2022/04/26 14:42:45;;;;;;;;;;;12.20;1.00;;;;;;5072831;28;19920;-78
2022/04/26 14:45:10;;;;;;;;;;;12.10;1.00;;;;;;5075115;28;20290;-78
2022/04/26 14:47:36;;;;;;;;;;;12.20;1.00;;;;;;5064424;28;19909;-79
2022/04/26 14:50:05;;;;;;;;;;;12.30;1.00;;;;;;5107254;28;19919;-80
2022/04/26 14:52:30;;;;;;;;;;;12.40;1.00;;;;;;5074965;28;19969;-79
2022/04/26 14:54:57;;;;;;;;;;;12.50;1.00;;;;;;5062736;28;20356;-78
2022/04/26 14:57:40;;;;;;;;;;;12.60;1.00;;;;;;5070585;28;19920;-79
2022/04/26 15:00:10;;;;;;;;;;;12.60;1.00;;;;;;5058376;28;19909;-79
2022/04/26 15:02:40;;;;;;;;;;;12.70;1.00;;;;;;5074998;28;19931;-82
2022/04/26 15:05:27;;;;;;;;;;;12.70;1.00;;;;;;5075439;28;19908;-80
2022/04/26 15:10:52;;;;;;;;;;;12.80;1.00;;;;;;5075714;28;19979;-85
2022/04/26 15:16:39;;;;;;;;;;;12.80;1.00;;;;;;5072226;28;19985;-82
2022/04/26 15:19:05;;;;;;;;;;;12.80;1.00;;;;;;5074372;28;19909;-81
2022/04/26 15:21:31;;;;;;;;;;;12.70;1.00;;;;;;5074264;28;19909;-81
2022/04/26 15:23:56;;;;;;;;;;;12.80;1.00;;;;;;5063898;28;19957;-81
2022/04/26 15:26:23;;;;;;;;;;;12.70;1.00;;;;;;5074695;28;19909;-73
2022/04/26 15:28:48;;;;;;;;;;;12.70;1.00;;;;;;5074522;28;19916;-73
2022/04/26 15:31:18;;;;;;;;;;;12.70;1.00;;;;;;5074455;28;20268;-73
2022/04/26 15:33:49;;;;;;;;;;;12.70;1.00;;;;;;5074255;28;19912;-73
2022/04/26 15:36:15;;;;;;;;;;;12.60;1.00;;;;;;5074416;28;20322;-73
2022/04/26 15:38:42;;;;;;;;;;;12.50;1.00;;;;;;5073881;28;19916;-73
2022/04/26 15:41:10;;;;;;;;;;;12.40;1.00;;;;;;5074679;28;20003;-79
2022/04/26 15:43:40;;;;;;;;;;;12.40;1.00;;;;;;5074448;28;19912;-79
2022/04/26 15:46:10;;;;;;;;;;;12.30;1.00;;;;;;5074195;28;19917;-81
2022/04/26 15:48:44;;;;;;;;;;;12.20;1.00;;;;;;5074289;28;20049;-80
2022/04/26 15:51:40;;;;;;;;;;;12.20;1.00;;;;;;5074675;28;19913;-80
2022/04/26 15:54:10;;;;;;;;;;;12.20;1.00;;;;;;5074028;28;19912;-80
2022/04/26 15:56:36;;;;;;;;;;;12.20;1.00;;;;;;5074288;28;19913;-74
2022/04/26 15:59:04;;;;;;;;;;;12.10;1.00;;;;;;5073871;28;19932;-73
2022/04/26 16:01:30;;;;;;;;;;;12.00;1.00;;;;;;5072998;28;19958;-73
2022/04/26 16:03:55;;;;;;;;;;;12.10;1.00;;;;;;5073480;28;20249;-74
2022/04/26 16:06:21;;;;;;;;;;;12.10;1.00;;;;;;5073723;28;19999;-74
2022/04/26 16:08:47;;;;;;;;;;;12.10;1.00;;;;;;5073641;28;19913;-82
2022/04/26 16:26:11;;;;;;;;;;;12.10;1.00;;;;;;5078657;28;20016;-75
2022/04/26 16:28:40;;;;;;;;;;;12.20;1.00;;;;;;5074075;28;19912;-75
2022/04/26 16:31:06;;;;;;;;;;;12.20;1.00;;;;;;5073925;28;19919;-75
2022/04/26 16:33:32;;;;;;;;;;;12.20;1.00;;;;;;5073504;28;19917;-75
2022/04/26 16:35:58;;;;;;;;;;;12.20;1.00;;;;;;5071179;28;20026;-75
2022/04/26 16:38:24;;;;;;;;;;;12.20;1.00;;;;;;5074170;28;19973;-76
2022/04/26 16:40:58;;;;;;;;;;;12.20;1.00;;;;;;5074531;28;20356;-77
2022/04/26 16:43:24;;;;;;;;;;;12.30;1.00;;;;;;5074084;28;19993;-71
2022/04/26 16:45:50;;;;;;;;;;;12.30;1.00;;;;;;5068178;28;19913;-70
2022/04/26 16:48:15;;;;;;;;;;;12.30;1.00;;;;;;5073532;28;19916;-70
2022/04/26 16:50:41;;;;;;;;;;;12.30;1.00;;;;;;5073087;28;19923;-70
2022/04/26 16:53:07;;;;;;;;;;;12.20;1.00;;;;;;5072443;28;19912;-70
2022/04/26 16:55:33;;;;;;;;;;;12.10;1.00;;;;;;5071028;28;19912;-71
2022/04/26 16:57:59;;;;;;;;;;;12.00;1.00;;;;;;5072039;28;19920;-71
2022/04/26 17:00:25;;;;;;;;;;;11.90;1.00;;;;;;5072918;28;19908;-71
2022/04/26 17:02:51;;;;;;;;;;;11.90;1.00;;;;;;5073176;28;19913;-71
2022/04/26 17:05:19;;;;;;;;;;;11.80;1.00;;;;;;5073158;28;20448;-71
2022/04/26 17:07:46;;;;;;;;;;;11.70;1.00;;;;;;5077552;28;20003;-70
2022/04/26 17:10:11;;;;;;;;;;;11.60;1.00;;;;;;5076815;28;19912;-70
2022/04/26 17:12:40;;;;;;;;;;;11.60;1.00;;;;;;5077755;28;19927;-73
2022/04/26 17:15:06;;;;;;;;;;;11.60;1.00;;;;;;5077130;28;19916;-72
2022/04/26 17:17:35;;;;;;;;;;;11.50;1.00;;;;;;5077445;28;19958;-73
2022/04/26 17:20:01;;;;;;;;;;;11.40;1.00;;;;;;5073187;28;20364;-73
2022/04/26 17:22:34;;;;;;;;;;;11.40;1.00;;;;;;5073674;28;20359;-72
2022/04/26 17:25:14;;;;;;;;;;;11.30;1.00;;;;;;5077292;28;19908;-72
2022/04/26 17:27:44;;;;;;;;;;;11.30;1.00;;;;;;5071230;28;19915;-71
2022/04/26 17:30:11;;;;;;;;;;;11.30;1.00;;;;;;5076528;28;19919;-71
2022/04/26 17:32:37;;;;;;;;;;;11.20;1.00;;;;;;5077027;28;19909;-71
2022/04/26 17:35:03;;;;;;;;;;;11.10;1.00;;;;;;5076663;28;19912;-71
2022/04/26 17:37:29;;;;;;;;;;;11.10;1.00;;;;;;5074340;28;19913;-70
2022/04/26 17:39:55;;;;;;;;;;;11.10;1.00;;;;;;5075756;28;20221;-77
2022/04/26 17:42:24;;;;;;;;;;;11.00;1.00;;;;;;5067111;28;20363;-77
2022/04/26 17:44:51;;;;;;;;;;;;;;;;;;5062336;28;20481;-70
2022/04/26 17:47:16;;;;;;;;;;;10.90;1.00;;;;;;5075052;28;19935;-76
2022/04/26 17:49:42;;;;;;;;;;;10.90;1.00;;;;;;5068795;28;20340;-75
2022/04/26 17:52:08;;;;;;;;;;;10.80;1.00;;;;;;5074416;28;20275;-76
2022/04/26 17:57:46;;;;;;;;;;;10.80;1.00;;;;;;5076518;28;19958;-77
2022/04/26 18:00:40;;;;;;;;;;;10.70;1.00;;;;;;5076337;28;19927;-79
2022/04/26 18:03:05;;;;;;;;;;;10.70;1.00;;;;;;5076590;28;20344;-79
2022/04/26 18:05:31;;;;;;;;;;;10.70;1.00;;;;;;5075696;28;19958;-75
2022/04/26 18:07:58;;;;;;;;;;;10.70;1.00;;;;;;5076232;28;19912;-76
2022/04/26 18:10:30;;;;;;;;;;;10.60;1.00;;;;;;5076389;28;19939;-75
2022/04/26 18:13:06;;;;;;;;;;;10.60;1.00;;;;;;5078821;28;20476;-84
2022/04/26 18:18:34;;;;;;;;;;;10.50;1.00;;;;;;5075505;28;20287;-83
2022/04/26 18:24:03;;;;;;;;;;;10.50;1.00;;;;;;5075677;28;19923;-81
2022/04/26 18:27:04;;;;;;;;;;;10.40;1.00;;;;;;5075662;28;19912;-79
2022/04/26 18:29:30;;;;;;;;;;;10.40;1.00;;;;;;5076538;28;19909;-79
2022/04/26 18:35:05;;;;;;;;;;;10.30;1.00;;;;;;5072841;28;19919;-82
2022/04/26 18:37:40;;;;;;;;;;;10.40;1.00;;;;;;5074250;28;19912;-82
2022/04/26 18:40:10;;;;;;;;;;;10.40;1.00;;;;;;5078931;28;19912;-81
2022/04/26 18:42:40;;;;;;;;;;;10.40;1.00;;;;;;5076143;28;20352;-81
2022/04/26 18:45:40;;;;;;;;;;;10.40;1.00;;;;;;5075407;28;20283;-82
2022/04/26 18:54:12;;;;;;;;;;;10.30;1.00;;;;;;5055316;28;19947;-82
2022/04/26 18:59:42;;;;;;;;;;;10.20;1.00;;;;;;5067285;28;20374;-76
2022/04/26 19:02:08;;;;;;;;;;;10.20;1.00;;;;;;5075555;28;19999;-76
2022/04/26 19:04:34;;;;;;;;;;;10.20;1.00;;;;;;5073347;28;20003;-76
2022/04/26 19:06:59;;;;;;;;;;;10.20;1.00;;;;;;5075435;28;19909;-76
2022/04/26 19:09:25;;;;;;;;;;;10.20;1.00;;;;;;5075346;28;19959;-76
2022/04/26 19:14:35;;;;;;;;;;;10.10;1.00;;;;;;5075629;28;19927;-76
2022/04/26 19:17:19;;;;;;;;;;;10.10;1.00;;;;;;5075370;28;19912;-75
2022/04/26 19:19:45;;;;;;;;;;;10.10;1.00;;;;;;5075443;28;19962;-76
2022/04/26 19:22:10;;;;;;;;;;;10.10;1.00;;;;;;5107844;28;19908;-76
2022/04/26 19:24:40;;;;;;;;;;;10.10;1.00;;;;;;5063104;28;19913;-76
2022/04/26 19:27:16;;;;;;;;;;;10.00;1.00;;;;;;5074786;28;20356;-76
2022/04/26 19:32:52;;;;;;;;;;;10.00;1.00;;;;;;5074465;28;19920;-82
2022/04/26 19:44:08;;;;;;;;;;;9.90;1.00;;;;;;5078352;28;20403;-77
2022/04/26 19:46:34;;;;;;;;;;;9.90;1.00;;;;;;5073567;28;19951;-77
2022/04/26 19:49:00;;;;;;;;;;;9.90;1.00;;;;;;5074756;28;19909;-76
2022/04/26 19:51:32;;;;;;;;;;;9.90;1.00;;;;;;5060438;28;19920;-77
2022/04/26 19:53:58;;;;;;;;;;;9.90;1.00;;;;;;5074286;28;19913;-77
2022/04/26 19:56:25;;;;;;;;;;;9.90;1.00;;;;;;5059359;28;19934;-76
2022/04/26 19:58:52;;;;;;;;;;;9.90;1.00;;;;;;5077988;28;19919;-77
2022/04/26 20:01:28;;;;;;;;;;;9.80;1.00;;;;;;5106763;28;19973;-77
2022/04/26 20:04:10;;;;;;;;;;;9.80;1.00;;;;;;5078557;28;19926;-76
2022/04/26 20:06:35;;;;;;;;;;;9.80;1.00;;;;;;5106649;28;19912;-82
2022/04/26 20:12:04;;;;;;;;;;;9.70;1.00;;;;;;5074268;28;19958;-82
2022/04/26 20:23:38;;;;;;;;;;;9.60;1.00;;;;;;5073913;28;20382;-82
2022/04/26 20:31:51;;;;;;;;;;;9.50;1.00;;;;;;5068278;28;20386;-76
2022/04/26 20:34:22;;;;;;;;;;;9.50;1.00;;;;;;5074086;28;19995;-77
2022/04/26 20:36:50;;;;;;;;;;;9.50;1.00;;;;;;5069132;28;19917;-76
2022/04/26 20:39:16;;;;;;;;;;;9.40;1.00;;;;;;5070930;28;19913;-76
2022/04/26 20:41:42;;;;;;;;;;;9.50;1.00;;;;;;5072141;28;20426;-76
2022/04/26 20:44:11;;;;;;;;;;;9.40;1.00;;;;;;5076186;28;19920;-79
2022/04/26 20:46:40;;;;;;;;;;;9.40;1.00;;;;;;5076851;28;20003;-82
2022/04/26 20:49:10;;;;;;;;;;;9.40;1.00;;;;;;5078072;28;20034;-82
2022/04/26 20:54:39;;;;;;;;;;;9.20;1.00;;;;;;5077611;28;20280;-82
2022/04/26 21:03:10;;;;;;;;;;;9.00;1.00;;;;;;5062278;28;19965;-82
2022/04/26 21:11:42;;;;;;;;;;;9.00;1.00;;;;;;5077299;28;19919;-82
2022/04/26 21:14:22;;;;;;;;;;;9.00;1.00;;;;;;5076969;28;19920;-83
2022/04/26 21:16:47;;;;;;;;;;;9.00;1.00;;;;;;5077595;28;19939;-78
2022/04/26 21:19:40;;;;;;;;;;;9.00;1.00;;;;;;5077215;28;19962;-77
2022/04/26 21:22:10;;;;;;;;;;;9.00;1.00;;;;;;5077333;28;19912;-77
2022/04/26 21:24:46;;;;;;;;;;;9.00;1.00;;;;;;5077346;28;20022;-77
2022/04/26 21:27:16;;;;;;;;;;;9.00;1.00;;;;;;5109906;28;19912;-77
2022/04/26 21:29:46;;;;;;;;;;;9.00;1.00;;;;;;5077247;28;19915;-78
2022/04/26 21:32:16;;;;;;;;;;;8.90;1.00;;;;;;5077152;28;19913;-77
2022/04/26 21:34:42;;;;;;;;;;;8.90;1.00;;;;;;5077007;28;19909;-77
2022/04/26 21:37:08;;;;;;;;;;;8.90;1.00;;;;;;5077166;28;20364;-77
2022/04/26 21:39:40;;;;;;;;;;;;;;;;;;5077007;28;19915;-77
2022/04/26 21:42:10;;;;;;;;;;;8.90;1.00;;;;;;5076803;28;19943;-77
2022/04/26 21:44:46;;;;;;;;;;;8.80;1.00;;;;;;5076811;28;19919;-77
2022/04/26 21:47:11;;;;;;;;;;;8.90;1.00;;;;;;5092486;28;19912;-77
2022/04/26 21:52:41;;;;;;;;;;;8.80;1.00;;;;;;5062825;28;20473;-82
2022/04/26 21:55:22;;;;;;;;;;;8.80;1.00;;;;;;5076705;28;19916;-82
2022/04/26 22:00:51;;;;;;;;;;;8.80;1.00;;;;;;5065009;28;19916;-77
2022/04/26 22:03:22;;;;;;;;;;;8.70;1.00;;;;;;5076719;28;19912;-77
2022/04/26 22:05:52;;;;;;;;;;;8.70;1.00;;;;;;5076601;28;19965;-77
2022/04/26 22:08:28;;;;;;;;;;;8.70;1.00;;;;;;5076976;28;19912;-77
2022/04/26 22:10:54;;;;;;;;;;;8.70;1.00;;;;;;5076316;28;20010;-77
2022/04/26 22:13:28;;;;;;;;;;;8.70;1.00;;;;;;5078571;28;20007;-77
2022/04/26 22:15:53;;;;;;;;;;;8.60;1.00;;;;;;5076374;28;20252;-82
2022/04/26 22:18:19;;;;;;;;;;;8.60;1.00;;;;;;5083731;28;19923;-82
2022/04/26 22:29:35;;;;;;;;;;;8.50;1.00;;;;;;5075934;28;20378;-82
2022/04/26 22:32:04;;;;;;;;;;;8.50;1.00;;;;;;5076399;28;19908;-77
2022/04/26 22:34:46;;;;;;;;;;;8.40;1.00;;;;;;5095016;28;20011;-77
2022/04/26 22:37:22;;;;;;;;;;;8.30;1.00;;;;;;5076057;28;19908;-77
2022/04/26 22:39:47;;;;;;;;;;;8.30;1.00;;;;;;5073865;28;19977;-77
2022/04/26 22:45:16;;;;;;;;;;;8.20;1.00;;;;;;5075572;28;19920;-80
2022/04/26 22:47:47;;;;;;;;;;;8.20;1.00;;;;;;5075610;28;19904;-77
2022/04/26 22:50:16;;;;;;;;;;;8.20;1.00;;;;;;5075427;28;20336;-77
2022/04/26 22:52:41;;;;;;;;;;;8.20;1.00;;;;;;5074493;28;19935;-77
2022/04/26 22:55:07;;;;;;;;;;;8.10;1.00;;;;;;5075665;28;19912;-77